createdAt,value
2023-03-26T00:00:21.746Z,99783.34
2023-03-26T00:02:52.327Z,99790.88
2023-03-26T00:05:22.514Z,99792.25
2023-03-26T00:07:52.596Z,99801.25
2023-03-26T00:10:22.966Z,99786.63
2023-03-26T00:12:55.904Z,99800.63
2023-03-26T00:15:25.845Z,99813.50
2023-03-26T00:17:56.486Z,99806.34
2023-03-26T00:20:27.615Z,99781.03
2023-03-26T00:22:57.992Z,99803.34
2023-03-26T00:25:28.068Z,99815.06
2023-03-26T00:28:00.792Z,99813.25
2023-03-26T00:30:31.174Z,99824.44
2023-03-26T00:33:01.499Z,99826.34
2023-03-26T00:35:31.831Z,99810.75
2023-03-26T00:38:02.406Z,99831.59
2023-03-26T00:40:36.906Z,99835.00
2023-03-26T00:43:18.869Z,99827.34
2023-03-26T00:45:50.338Z,99835.59
2023-03-26T00:48:28.668Z,99840.50
2023-03-26T00:51:04.524Z,99838.59
2023-03-26T00:53:35.158Z,99840.34
2023-03-26T00:56:05.623Z,99845.38
2023-03-26T00:58:38.833Z,99828.28
2023-03-26T01:01:13.916Z,99828.75
2023-03-26T01:04:00.865Z,99841.25
2023-03-26T01:06:37.008Z,99843.22
2023-03-26T01:09:16.104Z,99852.47
2023-03-26T01:11:47.072Z,99849.72
2023-03-26T01:14:23.863Z,99852.34
2023-03-26T01:16:57.219Z,99845.16
2023-03-26T01:19:34.125Z,99847.53
2023-03-26T01:22:05.350Z,99846.66
2023-03-26T01:24:38.088Z,99851.66
2023-03-26T01:27:21.119Z,99854.16
2023-03-26T01:29:56.088Z,99847.25
2023-03-26T01:32:41.160Z,99827.28
2023-03-26T01:35:21.468Z,99850.50
2023-03-26T01:38:10.804Z,99861.28
2023-03-26T01:40:49.637Z,99849.50
2023-03-26T01:43:29.084Z,99855.09
2023-03-26T01:46:03.771Z,99844.81
2023-03-26T01:48:36.500Z,99841.56
2023-03-26T01:51:07.701Z,99849.25
2023-03-26T01:53:42.422Z,99858.25
2023-03-26T01:56:22.985Z,99844.69
2023-03-26T01:59:09.098Z,99840.84
2023-03-26T02:01:46.396Z,99845.84
2023-03-26T02:04:24.897Z,99849.41
2023-03-26T02:07:06.058Z,99846.47
2023-03-26T02:09:46.003Z,99840.59
2023-03-26T02:12:20.551Z,99843.91
2023-03-26T02:14:50.688Z,99838.53
2023-03-26T02:17:24.518Z,99833.72
2023-03-26T02:19:54.857Z,99844.66
2023-03-26T02:22:30.198Z,99838.81
2023-03-26T02:25:01.957Z,99843.53
2023-03-26T02:27:35.208Z,99850.47
2023-03-26T02:30:05.358Z,99839.75
2023-03-26T02:32:35.619Z,99836.09
2023-03-26T02:35:06.935Z,99837.66
2023-03-26T02:37:38.424Z,99833.53
2023-03-26T02:40:17.753Z,99846.75
2023-03-26T02:42:52.477Z,99844.69
2023-03-26T02:45:22.827Z,99849.84
2023-03-26T02:48:11.522Z,99843.34
2023-03-26T02:50:41.677Z,99853.78
2023-03-26T02:53:34.319Z,99849.34
2023-03-26T02:56:27.212Z,99844.50
2023-03-26T02:59:18.433Z,99846.22
2023-03-26T03:01:52.423Z,99839.75
2023-03-26T03:04:24.229Z,99839.28
2023-03-26T03:06:57.835Z,99844.56
2023-03-26T03:09:29.095Z,99840.44
2023-03-26T03:12:18.039Z,99835.69
2023-03-26T03:14:50.647Z,99833.50
2023-03-26T03:17:21.008Z,99828.19
2023-03-26T03:19:51.294Z,99832.34
2023-03-26T03:22:21.476Z,99816.41
2023-03-26T03:24:57.812Z,99821.28
2023-03-26T03:27:28.339Z,99809.81
2023-03-26T03:30:11.096Z,99806.19
2023-03-26T03:32:50.227Z,99814.66
2023-03-26T03:35:24.578Z,99803.78
2023-03-26T03:37:59.281Z,99804.38
2023-03-26T03:40:31.128Z,99782.97
2023-03-26T03:43:01.639Z,99794.00
2023-03-26T03:45:44.917Z,99808.06
2023-03-26T03:48:39.349Z,99805.31
2023-03-26T03:51:10.878Z,99808.81
2023-03-26T03:53:53.955Z,99808.56
2023-03-26T03:56:36.210Z,99808.25
2023-03-26T03:59:28.256Z,99802.69
2023-03-26T04:02:01.004Z,99810.19
2023-03-26T04:04:37.848Z,99812.13
2023-03-26T04:07:09.930Z,99811.97
2023-03-26T04:10:04.085Z,99819.22
2023-03-26T04:12:54.171Z,99822.16
2023-03-26T04:15:37.343Z,99821.00
2023-03-26T04:18:11.952Z,99818.19
2023-03-26T04:20:48.345Z,99822.03
2023-03-26T04:23:38.659Z,99824.34
2023-03-26T04:26:21.485Z,99815.66
2023-03-26T04:29:12.080Z,99820.66
2023-03-26T04:31:43.319Z,99825.22
2023-03-26T04:34:25.297Z,99826.09
2023-03-26T04:37:14.491Z,99822.19
2023-03-26T04:39:50.299Z,99820.81
2023-03-26T04:42:37.786Z,99816.63
2023-03-26T04:45:33.779Z,99809.25
2023-03-26T04:48:04.181Z,99811.16
2023-03-26T04:50:37.607Z,99815.25
2023-03-26T04:53:08.082Z,99811.28
2023-03-26T04:56:02.260Z,99818.03
2023-03-26T04:59:03.561Z,99806.72
2023-03-26T05:01:38.040Z,99805.84
2023-03-26T05:04:09.151Z,99805.69
2023-03-26T05:06:43.098Z,99804.13
2023-03-26T05:09:25.835Z,99802.25
2023-03-26T05:12:16.933Z,99790.56
2023-03-26T05:15:22.318Z,99799.38
2023-03-26T05:17:58.332Z,99803.78
2023-03-26T05:20:34.018Z,99793.50
2023-03-26T05:23:10.890Z,99799.06
2023-03-26T05:25:47.355Z,99801.97
2023-03-26T05:28:24.901Z,99796.66
2023-03-26T05:31:01.808Z,99797.53
2023-03-26T05:33:36.956Z,99804.78
2023-03-26T05:36:15.971Z,99802.25
2023-03-26T05:38:53.591Z,99799.63
2023-03-26T05:41:42.011Z,99798.88
2023-03-26T05:44:11.997Z,99801.38
2023-03-26T05:46:42.156Z,99792.13
2023-03-26T05:49:15.588Z,99799.31
2023-03-26T05:51:45.762Z,99804.69
2023-03-26T05:54:38.531Z,99794.47
2023-03-26T05:57:11.417Z,99808.25
2023-03-26T06:00:16.957Z,99796.41
2023-03-26T06:02:47.261Z,99798.69
2023-03-26T06:05:37.422Z,99797.22
2023-03-26T06:08:16.061Z,99789.91
2023-03-26T06:11:01.309Z,99785.34
2023-03-26T06:13:34.356Z,99792.41
2023-03-26T06:16:04.693Z,99786.50
2023-03-26T06:18:37.978Z,99782.81
2023-03-26T06:21:46.390Z,99775.84
2023-03-26T06:24:22.278Z,99783.31
2023-03-26T06:27:12.269Z,99781.41
2023-03-26T06:29:56.664Z,99782.84
2023-03-26T06:32:40.767Z,99778.84
2023-03-26T06:35:17.503Z,99756.06
2023-03-26T06:37:47.701Z,99775.38
2023-03-26T06:40:17.903Z,99774.03
2023-03-26T06:43:29.016Z,99771.03
2023-03-26T06:46:23.612Z,99761.38
2023-03-26T06:49:12.495Z,99769.69
2023-03-26T06:51:46.645Z,99775.53
2023-03-26T06:54:42.775Z,99765.88
2023-03-26T06:57:45.627Z,99773.28
2023-03-26T07:00:38.701Z,99769.16
2023-03-26T07:03:27.607Z,99766.03
2023-03-26T07:06:16.078Z,99747.84
2023-03-26T07:09:06.781Z,99752.91
2023-03-26T07:11:55.712Z,99755.66
2023-03-26T07:14:44.814Z,99757.31
2023-03-26T07:17:36.050Z,99765.34
2023-03-26T07:20:15.838Z,99753.41
2023-03-26T07:22:46.855Z,99746.66
2023-03-26T07:25:22.435Z,99745.91
2023-03-26T07:28:28.359Z,99746.88
2023-03-26T07:31:30.885Z,99752.91
2023-03-26T07:34:29.369Z,99740.13
2023-03-26T07:37:34.076Z,99738.13
2023-03-26T07:40:49.405Z,99741.41
2023-03-26T07:43:43.910Z,99742.41
2023-03-26T07:46:47.996Z,99735.34
2023-03-26T07:49:57.897Z,99737.88
2023-03-26T07:52:41.062Z,99726.56
2023-03-26T07:55:21.551Z,99722.78
2023-03-26T07:58:18.458Z,99726.53
2023-03-26T08:01:14.791Z,99715.56
2023-03-26T08:04:23.272Z,99716.75
2023-03-26T08:07:22.414Z,99719.56
2023-03-26T08:10:19.857Z,99715.28
2023-03-26T08:13:10.061Z,99715.16
2023-03-26T08:15:48.086Z,99715.97
2023-03-26T08:18:30.642Z,99698.56
2023-03-26T08:21:08.186Z,99706.19
2023-03-26T08:23:51.299Z,99704.50
2023-03-26T08:26:34.583Z,99699.34
2023-03-26T08:29:17.425Z,99712.00
2023-03-26T08:31:49.528Z,99717.81
2023-03-26T08:34:19.564Z,99715.06
2023-03-26T08:36:49.644Z,99713.84
2023-03-26T08:39:22.710Z,99719.66
2023-03-26T08:42:22.456Z,99710.53
2023-03-26T08:45:25.405Z,99711.38
2023-03-26T08:48:29.999Z,99709.97
2023-03-26T08:51:30.200Z,99721.97
2023-03-26T08:54:29.620Z,99714.44
2023-03-26T08:57:16.000Z,99716.34
2023-03-26T09:00:20.762Z,99705.56
2023-03-26T09:03:28.036Z,99715.09
2023-03-26T09:06:19.865Z,99715.69
2023-03-26T09:09:37.594Z,99718.78
2023-03-26T09:12:39.932Z,99707.97
2023-03-26T09:15:45.249Z,99706.91
2023-03-26T09:18:45.619Z,99701.97
2023-03-26T09:21:31.048Z,99710.31
2023-03-26T09:24:34.540Z,99699.09
2023-03-26T09:27:18.751Z,99704.41
2023-03-26T09:30:33.463Z,99701.72
2023-03-26T09:33:33.471Z,99701.88
2023-03-26T09:36:33.135Z,99701.81
2023-03-26T09:39:18.001Z,99697.94
2023-03-26T09:42:05.122Z,99700.88
2023-03-26T09:45:06.366Z,99699.56
2023-03-26T09:47:53.824Z,99705.94
2023-03-26T09:50:59.037Z,99707.06
2023-03-26T09:53:54.275Z,99702.22
2023-03-26T09:56:49.983Z,99710.69
2023-03-26T09:59:55.755Z,99713.81
2023-03-26T10:02:45.108Z,99700.78
2023-03-26T10:05:30.255Z,99699.59
2023-03-26T10:08:09.761Z,99697.38
2023-03-26T10:10:52.173Z,99683.50
2023-03-26T10:13:33.632Z,99682.81
2023-03-26T10:16:13.388Z,99691.53
2023-03-26T10:18:58.840Z,99682.03
2023-03-26T10:21:41.847Z,99690.47
2023-03-26T10:24:23.850Z,99689.94
2023-03-26T10:27:09.422Z,99697.34
2023-03-26T10:30:10.822Z,99678.03
2023-03-26T10:32:49.894Z,99684.91
2023-03-26T10:35:29.516Z,99680.66
2023-03-26T10:38:16.814Z,99687.75
2023-03-26T10:40:58.165Z,99672.66
2023-03-26T10:43:54.592Z,99673.28
2023-03-26T10:46:47.207Z,99676.19
2023-03-26T10:49:58.336Z,99677.38
2023-03-26T10:52:36.148Z,99672.13
2023-03-26T10:55:14.740Z,99664.91
2023-03-26T10:57:49.223Z,99665.31
2023-03-26T11:00:25.547Z,99665.84
2023-03-26T11:03:14.761Z,99662.69
2023-03-26T11:05:52.228Z,99648.78
2023-03-26T11:08:31.924Z,99666.63
2023-03-26T11:11:12.138Z,99656.44
2023-03-26T11:13:51.183Z,99648.06
2023-03-26T11:16:28.556Z,99660.16
2023-03-26T11:19:05.782Z,99656.34
2023-03-26T11:21:43.227Z,99649.88
2023-03-26T11:24:37.932Z,99651.41
2023-03-26T11:27:20.896Z,99647.69
2023-03-26T11:29:58.654Z,99648.44
2023-03-26T11:32:34.827Z,99649.41
2023-03-26T11:35:14.656Z,99646.88
2023-03-26T11:37:48.323Z,99626.19
2023-03-26T11:40:24.582Z,99650.50
2023-03-26T11:43:01.423Z,99648.94
2023-03-26T11:45:36.307Z,99628.06
2023-03-26T11:48:11.513Z,99644.81
2023-03-26T11:54:28.921Z,99630.22
2023-03-26T11:57:07.404Z,99641.50
2023-03-26T11:59:56.525Z,99643.47
2023-03-26T12:02:34.386Z,99638.25
2023-03-26T12:05:20.478Z,99614.50
2023-03-26T12:07:57.016Z,99632.72
2023-03-26T12:10:38.360Z,99638.75
2023-03-26T12:13:33.363Z,99637.53
2023-03-26T12:16:11.040Z,99630.06
2023-03-26T12:18:44.049Z,99629.31
2023-03-26T12:21:16.093Z,99632.31
2023-03-26T12:23:57.017Z,99628.78
2023-03-26T12:26:45.225Z,99627.91
2023-03-26T12:29:17.410Z,99626.00
2023-03-26T12:31:54.297Z,99625.22
2023-03-26T12:34:26.491Z,99607.69
2023-03-26T12:37:00.258Z,99626.13
2023-03-26T12:40:09.380Z,99619.13
2023-03-26T12:44:45.206Z,99620.34
2023-03-26T12:45:25.901Z,99614.66
2023-03-26T12:48:03.425Z,99614.56
2023-03-26T12:50:57.550Z,99624.22
2023-03-26T12:53:52.884Z,99620.25
2023-03-26T12:56:36.548Z,99628.25
2023-03-26T12:59:24.712Z,99632.75
2023-03-26T13:02:07.881Z,99625.84
2023-03-26T13:05:05.036Z,99622.53
2023-03-26T13:07:52.251Z,99617.13
2023-03-26T13:10:41.484Z,99625.78
2023-03-26T13:13:36.539Z,99612.22
2023-03-26T13:16:16.530Z,99623.22
2023-03-26T13:18:53.181Z,99614.78
2023-03-26T13:21:34.068Z,99617.16
2023-03-26T13:24:10.780Z,99620.06
2023-03-26T13:26:55.605Z,99604.94
2023-03-26T13:29:32.352Z,99613.81
2023-03-26T13:32:17.866Z,99612.66
2023-03-26T13:35:02.731Z,99609.31
2023-03-26T13:37:40.068Z,99610.50
2023-03-26T13:40:25.587Z,99609.84
2023-03-26T13:43:22.165Z,99600.13
2023-03-26T13:46:00.602Z,99608.03
2023-03-26T13:48:39.744Z,99614.97
2023-03-26T13:51:14.410Z,99617.25
2023-03-26T13:53:50.666Z,99595.22
2023-03-26T13:56:26.608Z,99618.34
2023-03-26T13:59:02.446Z,99607.91
2023-03-26T14:01:41.357Z,99603.81
2023-03-26T14:04:21.803Z,99616.88
2023-03-26T14:06:58.136Z,99611.84
2023-03-26T14:09:33.508Z,99610.28
2023-03-26T14:12:21.191Z,99614.16
2023-03-26T14:14:57.256Z,99611.06
2023-03-26T14:17:34.602Z,99619.66
2023-03-26T14:20:41.603Z,99620.25
2023-03-26T14:23:35.270Z,99615.81
2023-03-26T14:26:17.530Z,99601.03
2023-03-26T14:29:12.862Z,99619.97
2023-03-26T14:31:51.568Z,99613.53
2023-03-26T14:34:33.369Z,99617.41
2023-03-26T14:37:38.706Z,99627.16
2023-03-26T14:40:28.094Z,99619.03
2023-03-26T14:43:08.226Z,99617.19
2023-03-26T14:45:55.084Z,99622.06
2023-03-26T14:48:57.629Z,99619.91
2023-03-26T14:51:51.627Z,99626.38
2023-03-26T14:54:28.898Z,99616.94
2023-03-26T14:57:29.372Z,99621.16
2023-03-26T15:00:32.304Z,99624.72
2023-03-26T15:03:38.835Z,99625.16
2023-03-26T15:06:29.101Z,99629.88
2023-03-26T15:09:31.450Z,99626.19
2023-03-26T15:12:13.719Z,99597.72
2023-03-26T15:15:14.022Z,99626.25
2023-03-26T15:18:12.338Z,99627.13
2023-03-26T15:21:18.321Z,99626.41
2023-03-26T15:24:20.655Z,99632.75
2023-03-26T15:27:31.526Z,99625.78
2023-03-26T15:30:33.745Z,99629.00
2023-03-26T15:33:31.186Z,99631.63
2023-03-26T15:36:19.665Z,99627.59
2023-03-26T15:39:38.223Z,99635.19
2023-03-26T15:42:22.207Z,99629.56
2023-03-26T15:44:57.889Z,99608.88
2023-03-26T15:47:54.159Z,99641.31
2023-03-26T15:50:51.006Z,99643.34
2023-03-26T15:53:33.801Z,99638.03
2023-03-26T15:56:21.059Z,99646.25
2023-03-26T15:59:02.841Z,99645.13
2023-03-26T16:01:49.199Z,99652.38
2023-03-26T16:04:27.885Z,99653.16
2023-03-26T16:07:03.905Z,99639.22
2023-03-26T16:10:01.209Z,99648.81
2023-03-26T16:12:39.342Z,99646.69
2023-03-26T16:15:29.571Z,99656.19
2023-03-26T16:18:32.404Z,99653.84
2023-03-26T16:21:31.944Z,99658.84
2023-03-26T16:24:22.606Z,99660.63
2023-03-26T16:27:08.093Z,99662.66
2023-03-26T16:30:20.689Z,99672.03
2023-03-26T16:32:58.976Z,99672.94
2023-03-26T16:36:02.601Z,99685.34
2023-03-26T16:38:52.603Z,99675.06
2023-03-26T16:41:25.924Z,99682.34
2023-03-26T16:44:10.803Z,99676.06
2023-03-26T16:46:53.082Z,99681.94
2023-03-26T16:49:34.975Z,99681.44
2023-03-26T16:52:24.153Z,99683.09
2023-03-26T16:55:04.034Z,99686.00
2023-03-26T16:57:43.771Z,99694.75
2023-03-26T17:00:36.128Z,99695.13
2023-03-26T17:03:29.071Z,99694.88
2023-03-26T17:06:17.135Z,99700.91
2023-03-26T17:08:57.553Z,99701.91
2023-03-26T17:11:38.727Z,99714.06
2023-03-26T17:14:24.017Z,99713.28
2023-03-26T17:17:15.291Z,99713.28
2023-03-26T17:19:53.044Z,99709.78
2023-03-26T17:22:37.566Z,99698.97
2023-03-26T17:25:35.191Z,99727.47
2023-03-26T17:28:45.817Z,99723.41
2023-03-26T17:31:24.098Z,99734.47
2023-03-26T17:33:54.992Z,99737.09
2023-03-26T17:36:43.952Z,99739.06
2023-03-26T17:40:12.662Z,99737.63
2023-03-26T17:43:04.267Z,99743.06
2023-03-26T17:45:38.316Z,99754.94
2023-03-26T17:48:21.270Z,99757.94
2023-03-26T17:50:55.585Z,99714.69
2023-03-26T17:53:30.974Z,99746.19
2023-03-26T17:56:06.709Z,99777.06
2023-03-26T17:58:39.364Z,99777.28
2023-03-26T18:01:27.209Z,99782.16
2023-03-26T18:04:00.650Z,99785.78
2023-03-26T18:06:49.833Z,99785.69
2023-03-26T18:09:37.859Z,99793.19
2023-03-26T18:12:47.631Z,99804.84
2023-03-26T18:15:37.140Z,99810.47
2023-03-26T18:18:18.177Z,99810.50
2023-03-26T18:20:49.380Z,99820.59
2023-03-26T18:23:29.637Z,99820.16
2023-03-26T18:26:01.613Z,99825.75
2023-03-26T18:28:38.726Z,99828.91
2023-03-26T18:31:18.964Z,99839.97
2023-03-26T18:33:51.160Z,99842.03
2023-03-26T18:36:30.066Z,99846.31
2023-03-26T18:39:02.326Z,99850.94
2023-03-26T18:41:37.993Z,99837.44
2023-03-26T18:44:17.555Z,99848.00
2023-03-26T18:46:50.060Z,99861.13
2023-03-26T18:49:20.780Z,99861.56
2023-03-26T18:51:57.084Z,99868.06
2023-03-26T18:54:32.246Z,99857.34
2023-03-26T18:57:15.210Z,99876.19
2023-03-26T18:59:53.231Z,99876.91
2023-03-26T19:02:24.802Z,99872.47
2023-03-26T19:04:56.917Z,99886.94
2023-03-26T19:07:28.911Z,99876.66
2023-03-26T19:10:00.480Z,99901.34
2023-03-26T19:12:35.963Z,99896.06
2023-03-26T19:15:12.730Z,99899.91
2023-03-26T19:17:47.374Z,99901.09
2023-03-26T19:20:24.598Z,99914.03
2023-03-26T19:22:56.156Z,99902.69
2023-03-26T19:25:33.947Z,99933.25
2023-03-26T19:28:11.344Z,99920.75
2023-03-26T19:30:44.464Z,99932.66
2023-03-26T19:33:18.572Z,99927.34
2023-03-26T19:35:54.267Z,99929.50
2023-03-26T19:38:27.644Z,99934.81
2023-03-26T19:40:59.788Z,99942.00
2023-03-26T19:43:30.459Z,99945.03
2023-03-26T19:46:03.327Z,99952.22
2023-03-26T19:51:18.597Z,99940.69
2023-03-26T19:51:35.269Z,99952.91
2023-03-26T19:54:16.097Z,99955.91
2023-03-26T19:56:46.730Z,99929.09
2023-03-26T19:59:17.297Z,99963.81
2023-03-26T20:01:50.826Z,99974.06
2023-03-26T20:04:21.479Z,99972.31
2023-03-26T20:06:53.071Z,99969.75
2023-03-26T20:09:23.380Z,99973.41
2023-03-26T20:11:54.622Z,99984.97
2023-03-26T20:14:29.592Z,99978.78
2023-03-26T20:17:03.244Z,99984.34
2023-03-26T20:19:43.939Z,99974.00
2023-03-26T20:22:16.616Z,99926.09
2023-03-26T20:24:47.961Z,99979.22
2023-03-26T20:27:19.958Z,99919.94
2023-03-26T20:30:00.341Z,99996.25
2023-03-26T20:32:39.906Z,99965.84
2023-03-26T20:35:36.128Z,99998.66
2023-03-26T20:38:12.459Z,100001.25
2023-03-26T20:40:47.809Z,100007.34
2023-03-26T20:43:35.919Z,100020.78
2023-03-26T20:46:14.218Z,100013.88
2023-03-26T20:48:54.044Z,100003.50
2023-03-26T20:52:03.153Z,100027.06
2023-03-26T20:54:39.881Z,100025.53
2023-03-26T20:57:18.923Z,99979.53
2023-03-26T20:59:51.116Z,100016.66
2023-03-26T21:02:23.883Z,100030.56
2023-03-26T21:05:03.639Z,100026.19
2023-03-26T21:07:35.792Z,100026.25
2023-03-26T21:10:10.455Z,100024.34
2023-03-26T21:12:48.424Z,100031.97
2023-03-26T21:15:26.744Z,100041.78
2023-03-26T21:17:58.588Z,100043.78
2023-03-26T21:20:33.279Z,100048.28
2023-03-26T21:23:16.642Z,100049.41
2023-03-26T21:25:57.237Z,100049.13
2023-03-26T21:28:41.842Z,100054.50
2023-03-26T21:31:18.673Z,100064.22
2023-03-26T21:33:50.854Z,100074.50
2023-03-26T21:36:24.466Z,100077.16
2023-03-26T21:38:55.841Z,100060.00
2023-03-26T21:41:36.178Z,100080.28
2023-03-26T21:44:06.635Z,100081.38
2023-03-26T21:46:37.729Z,100081.97
2023-03-26T21:49:08.969Z,100088.56
2023-03-26T21:51:43.295Z,100080.41
2023-03-26T21:54:21.038Z,100101.56
2023-03-26T21:56:58.902Z,100113.31
2023-03-26T21:59:39.464Z,100116.50
2023-03-26T22:02:16.711Z,100118.09
2023-03-26T22:04:52.605Z,100111.22
2023-03-26T22:07:30.449Z,100108.22
2023-03-26T22:10:01.164Z,100129.03
2023-03-26T22:12:31.448Z,100130.47
2023-03-26T22:15:01.839Z,100134.25
2023-03-26T22:17:32.814Z,100137.44
2023-03-26T22:20:07.440Z,100148.25
2023-03-26T22:22:41.796Z,100152.53
2023-03-26T22:25:13.182Z,100148.97
2023-03-26T22:27:44.759Z,100159.09
2023-03-26T22:30:16.603Z,100132.22
2023-03-26T22:32:47.563Z,100162.66
2023-03-26T22:35:18.746Z,100166.75
2023-03-26T22:37:53.279Z,100166.97
2023-03-26T22:40:32.096Z,100175.88
2023-03-26T22:43:02.549Z,100178.75
2023-03-26T22:45:33.383Z,100167.09
2023-03-26T22:48:04.754Z,100183.41
2023-03-26T22:50:35.882Z,100195.53
2023-03-26T22:53:08.778Z,100199.94
2023-03-26T22:55:40.516Z,100200.69
2023-03-26T22:58:12.045Z,100197.69
2023-03-26T23:00:43.624Z,100209.75
2023-03-26T23:03:14.547Z,100208.88
2023-03-26T23:05:44.742Z,100214.03
2023-03-26T23:08:17.960Z,100210.19
2023-03-26T23:10:48.440Z,100219.03
2023-03-26T23:13:19.530Z,100228.31
2023-03-26T23:15:52.645Z,100229.38
2023-03-26T23:18:23.429Z,100242.69
2023-03-26T23:20:56.127Z,100237.31
2023-03-26T23:23:32.293Z,100247.13
2023-03-26T23:26:05.235Z,100262.25
2023-03-26T23:28:37.712Z,100256.56
2023-03-26T23:31:13.092Z,100261.91
2023-03-26T23:33:46.804Z,100254.28
2023-03-26T23:36:19.010Z,100257.84
2023-03-26T23:38:53.801Z,100262.13
2023-03-26T23:41:27.673Z,100260.34
2023-03-26T23:43:58.380Z,100278.50
2023-03-26T23:46:33.276Z,100276.75
2023-03-26T23:49:05.147Z,100286.38
2023-03-26T23:51:37.238Z,100295.28
2023-03-26T23:54:11.824Z,100309.16
2023-03-26T23:56:42.080Z,100322.00
2023-03-26T23:59:13.446Z,100320.81
